createdAt,value
2019-05-28T00:00:44.904Z,99429.08
2019-05-28T00:03:16.900Z,99427.63
2019-05-28T00:05:48.839Z,99421.75
2019-05-28T00:08:20.853Z,99417.55
2019-05-28T00:10:52.868Z,99413.91
2019-05-28T00:13:24.841Z,99412.17
2019-05-28T00:15:57.328Z,99412.71
2019-05-28T00:18:29.873Z,99407.16
2019-05-28T00:21:02.405Z,99402.23
2019-05-28T00:23:34.837Z,99396.48
2019-05-28T00:26:06.838Z,99395.42
2019-05-28T00:28:39.861Z,99393.09
2019-05-28T00:31:11.734Z,99396.48
2019-05-28T00:33:42.475Z,99386.19
2019-05-28T00:36:14.718Z,99386.09
2019-05-28T00:38:46.362Z,99380.64
2019-05-28T00:41:18.064Z,99376.65
2019-05-28T00:43:49.782Z,99379.16
2019-05-28T00:46:21.779Z,99377.26
2019-05-28T00:48:52.515Z,99373.90
2019-05-28T00:51:24.301Z,99373.60
2019-05-28T00:53:56.355Z,99367.42
2019-05-28T00:56:28.064Z,99369.95
2019-05-28T00:58:59.793Z,99374.48
2019-05-28T01:01:31.757Z,99369.32
2019-05-28T01:04:02.496Z,99371.08
2019-05-28T01:06:34.268Z,99372.23
2019-05-28T01:09:08.314Z,99372.98
2019-05-28T01:11:39.852Z,99368.48
2019-05-28T01:14:11.378Z,99367.03
2019-05-28T01:16:43.070Z,99366.06
2019-05-28T01:19:15.061Z,99366.98
2019-05-28T01:21:46.765Z,99357.48
2019-05-28T01:24:17.510Z,99360.84
2019-05-28T01:26:49.273Z,99360.61
2019-05-28T01:29:20.866Z,99356.31
2019-05-28T01:31:52.785Z,99350.77
2019-05-28T01:34:23.473Z,99357.05
2019-05-28T01:36:55.305Z,99350.95
2019-05-28T01:39:26.869Z,99353.06
2019-05-28T01:41:58.726Z,99343.42
2019-05-28T01:44:29.611Z,99343.12
2019-05-28T01:47:01.372Z,99339.13
2019-05-28T01:49:33.302Z,99339.13
2019-05-28T01:52:04.846Z,99333.58
2019-05-28T01:54:36.365Z,99335.03
2019-05-28T01:57:08.023Z,99333.58
2019-05-28T01:59:39.780Z,99336.94
2019-05-28T02:02:10.455Z,99327.79
2019-05-28T02:04:42.511Z,99324.97
2019-05-28T02:07:14.324Z,99323.75
2019-05-28T02:09:46.057Z,99323.75
2019-05-28T02:12:17.768Z,99328.33
2019-05-28T02:14:48.472Z,99332.95
2019-05-28T02:17:20.298Z,99328.95
2019-05-28T02:19:52.037Z,99327.06
2019-05-28T02:22:23.999Z,99329.89
2019-05-28T02:24:55.778Z,99325.30
2019-05-28T02:27:27.278Z,99318.50
2019-05-28T02:29:59.298Z,99321.55
2019-05-28T02:32:30.809Z,99321.85
2019-05-28T02:35:02.554Z,99320.05
2019-05-28T02:37:34.304Z,99318.25
2019-05-28T02:40:07.309Z,99317.95
2019-05-28T02:42:38.897Z,99319.84
2019-05-28T02:45:10.807Z,99319.31
2019-05-28T02:47:42.580Z,99321.41
2019-05-28T02:50:13.586Z,99321.46
2019-05-28T02:52:45.254Z,99323.08
2019-05-28T02:55:18.345Z,99320.15
2019-05-28T02:57:50.049Z,99319.75
2019-05-28T03:00:21.745Z,99322.69
2019-05-28T03:02:52.931Z,99321.60
2019-05-28T03:05:24.762Z,99317.56
2019-05-28T03:07:55.797Z,99323.42
2019-05-28T03:11:01.737Z,99323.95
2019-05-28T03:13:11.770Z,99325.20
2019-05-28T03:15:45.258Z,99322.92
2019-05-28T03:18:17.467Z,99324.28
2019-05-28T03:20:49.530Z,99324.28
2019-05-28T03:23:21.310Z,99324.28
2019-05-28T03:25:52.824Z,99319.03
2019-05-28T03:28:24.885Z,99328.67
2019-05-28T03:30:56.388Z,99332.55
2019-05-28T03:33:28.067Z,99328.23
2019-05-28T03:36:00.466Z,99331.69
2019-05-28T03:38:32.293Z,99331.30
2019-05-28T03:41:03.962Z,99324.58
2019-05-28T03:43:35.750Z,99327.60
2019-05-28T03:46:06.468Z,99329.48
2019-05-28T03:48:38.444Z,99334.61
2019-05-28T03:51:10.366Z,99332.22
2019-05-28T03:53:42.017Z,99327.06
2019-05-28T03:56:13.762Z,99331.98
2019-05-28T04:01:28.870Z,99332.91
2019-05-28T04:04:01.327Z,99336.20
2019-05-28T04:06:33.362Z,99344.59
2019-05-28T04:09:07.759Z,99344.89
2019-05-28T04:11:44.620Z,99342.40
2019-05-28T04:14:14.542Z,99342.59
2019-05-28T04:16:46.864Z,99348.05
2019-05-28T04:19:19.389Z,99346.40
2019-05-28T04:21:51.731Z,99351.22
2019-05-28T04:24:22.688Z,99351.55
2019-05-28T04:26:53.801Z,99344.30
2019-05-28T04:29:26.410Z,99345.33
2019-05-28T04:31:58.869Z,99346.09
2019-05-28T04:34:31.065Z,99348.39
2019-05-28T04:37:03.879Z,99346.94
2019-05-28T04:39:36.043Z,99353.64
2019-05-28T04:42:08.326Z,99347.67
2019-05-28T04:44:40.822Z,99353.02
2019-05-28T04:47:13.335Z,99360.70
2019-05-28T04:49:45.846Z,99356.48
2019-05-28T04:52:17.988Z,99360.98
2019-05-28T04:54:51.326Z,99363.52
2019-05-28T04:57:23.823Z,99359.20
2019-05-28T04:59:55.913Z,99360.89
2019-05-28T05:02:27.876Z,99365.09
2019-05-28T05:04:59.890Z,99361.09
2019-05-28T05:07:31.821Z,99367.38
2019-05-28T05:10:03.907Z,99370.20
2019-05-28T05:12:35.834Z,99371.38
2019-05-28T05:15:07.906Z,99375.66
2019-05-28T05:17:39.871Z,99378.09
2019-05-28T05:20:11.883Z,99372.73
2019-05-28T05:22:43.854Z,99376.42
2019-05-28T05:25:15.931Z,99378.09
2019-05-28T05:27:48.337Z,99380.61
2019-05-28T05:30:20.866Z,99371.61
2019-05-28T05:32:53.544Z,99378.22
2019-05-28T05:35:25.879Z,99375.50
2019-05-28T05:37:57.916Z,99376.77
2019-05-28T05:40:29.890Z,99377.27
2019-05-28T05:43:02.003Z,99374.43
2019-05-28T05:45:34.088Z,99378.52
2019-05-28T05:48:06.321Z,99384.66
2019-05-28T05:50:38.815Z,99385.00
2019-05-28T05:53:10.773Z,99390.45
2019-05-28T05:55:43.425Z,99380.52
2019-05-28T05:58:15.836Z,99380.71
2019-05-28T06:00:47.832Z,99381.34
2019-05-28T06:03:39.279Z,99384.77
2019-05-28T06:05:53.853Z,99375.16
2019-05-28T06:08:26.316Z,99375.16
2019-05-28T06:10:58.799Z,99382.70
2019-05-28T06:13:30.858Z,99382.91
2019-05-28T06:16:02.844Z,99390.25
2019-05-28T06:18:34.853Z,99392.75
2019-05-28T06:21:13.856Z,99385.43
2019-05-28T06:23:40.861Z,99391.34
2019-05-28T06:26:13.043Z,99391.34
2019-05-28T06:28:45.855Z,99394.06
2019-05-28T06:31:18.278Z,99398.58
2019-05-28T06:33:56.881Z,99403.90
2019-05-28T06:36:27.895Z,99401.70
2019-05-28T06:38:59.922Z,99403.20
2019-05-28T06:41:31.839Z,99405.06
2019-05-28T06:44:03.889Z,99405.68
2019-05-28T06:46:35.970Z,99404.02
2019-05-28T06:49:07.877Z,99405.91
2019-05-28T06:51:40.001Z,99398.56
2019-05-28T06:54:12.112Z,99400.99
2019-05-28T06:56:44.625Z,99398.47
2019-05-28T06:59:16.884Z,99386.41
2019-05-28T07:01:48.821Z,99386.41
2019-05-28T07:04:32.265Z,99403.48
2019-05-28T07:06:54.778Z,99392.86
2019-05-28T07:09:27.330Z,99392.86
2019-05-28T07:11:59.831Z,99409.41
2019-05-28T07:14:31.832Z,99411.66
2019-05-28T07:17:04.582Z,99408.30
2019-05-28T07:19:36.821Z,99393.97
2019-05-28T07:22:08.809Z,99393.97
2019-05-28T07:24:40.858Z,99391.15
2019-05-28T07:27:12.848Z,99392.52
2019-05-28T07:29:44.854Z,99399.42
2019-05-28T07:34:58.605Z,99410.41
2019-05-28T07:37:30.417Z,99417.14
2019-05-28T07:40:02.290Z,99417.14
2019-05-28T07:42:33.845Z,99419.34
2019-05-28T07:45:06.036Z,99419.34
2019-05-28T07:47:37.810Z,99422.80
2019-05-28T07:50:09.369Z,99426.90
2019-05-28T07:52:40.986Z,99423.44
2019-05-28T07:55:12.739Z,99423.24
2019-05-28T07:57:43.465Z,99416.61
2019-05-28T08:00:15.391Z,99417.98
2019-05-28T08:02:47.125Z,99419.88
2019-05-28T08:05:19.302Z,99417.87
2019-05-28T08:07:51.373Z,99417.98
2019-05-28T08:10:23.054Z,99420.69
2019-05-28T08:12:54.794Z,99417.23
2019-05-28T08:15:26.767Z,99422.45
2019-05-28T08:17:58.366Z,99421.72
2019-05-28T08:20:30.278Z,99423.09
2019-05-28T08:23:01.847Z,99418.34
2019-05-28T08:25:46.917Z,99415.32
2019-05-28T08:28:19.418Z,99421.19
2019-05-28T08:30:40.305Z,99424.64
2019-05-28T08:33:11.814Z,99424.64
2019-05-28T08:35:43.582Z,99430.33
2019-05-28T08:38:15.310Z,99432.18
2019-05-28T08:40:47.028Z,99432.18
2019-05-28T08:43:18.770Z,99435.20
2019-05-28T08:45:49.471Z,99437.49
2019-05-28T08:48:21.305Z,99434.02
2019-05-28T08:50:53.289Z,99434.72
2019-05-28T08:53:25.311Z,99434.72
2019-05-28T08:55:56.824Z,99435.69
2019-05-28T08:58:28.789Z,99435.16
2019-05-28T09:00:59.496Z,99440.01
2019-05-28T09:03:31.309Z,99436.78
2019-05-28T09:06:02.855Z,99440.62
2019-05-28T09:08:39.119Z,99446.38
2019-05-28T09:11:08.660Z,99449.59
2019-05-28T09:13:40.751Z,99449.59
2019-05-28T09:16:11.494Z,99448.22
2019-05-28T09:18:43.312Z,99446.70
2019-05-28T09:21:14.853Z,99443.65
2019-05-28T09:23:46.609Z,99448.99
2019-05-28T09:26:18.779Z,99438.23
2019-05-28T09:28:49.700Z,99438.23
2019-05-28T09:31:21.332Z,99439.44
2019-05-28T09:33:53.067Z,99439.44
2019-05-28T09:36:24.713Z,99445.39
2019-05-28T09:38:55.450Z,99447.63
2019-05-28T09:41:27.463Z,99441.84
2019-05-28T09:43:59.298Z,99443.39
2019-05-28T09:46:30.818Z,99445.39
2019-05-28T09:49:02.528Z,99443.91
2019-05-28T09:51:34.301Z,99446.94
2019-05-28T09:54:06.307Z,99446.94
2019-05-28T09:56:37.847Z,99443.91
2019-05-28T09:59:09.597Z,99448.50
2019-05-28T10:01:41.710Z,99450.11
2019-05-28T10:04:12.490Z,99444.31
2019-05-28T10:06:44.306Z,99455.75
2019-05-28T10:09:15.806Z,99453.31
2019-05-28T10:11:47.498Z,99458.04
2019-05-28T10:14:19.418Z,99461.16
2019-05-28T10:16:51.103Z,99460.67
2019-05-28T10:19:22.767Z,99466.58
2019-05-28T10:21:53.478Z,99466.59
2019-05-28T10:24:25.261Z,99467.52
2019-05-28T10:26:56.886Z,99469.60
2019-05-28T10:29:29.065Z,99477.14
2019-05-28T10:32:00.775Z,99481.87
2019-05-28T10:34:31.607Z,99474.12
2019-05-28T10:37:02.927Z,99479.58
2019-05-28T10:39:34.781Z,99485.87
2019-05-28T10:42:05.506Z,99484.80
2019-05-28T10:44:37.268Z,99484.80
2019-05-28T10:47:08.845Z,99480.61
2019-05-28T10:49:40.380Z,99480.31
2019-05-28T10:52:12.279Z,99486.50
2019-05-28T10:54:43.891Z,99485.82
2019-05-28T10:57:15.770Z,99481.87
2019-05-28T10:59:48.189Z,99482.70
2019-05-28T11:02:19.774Z,99476.08
2019-05-28T11:04:51.365Z,99476.52
2019-05-28T11:07:23.062Z,99482.91
2019-05-28T11:09:54.851Z,99473.98
2019-05-28T11:12:26.743Z,99473.14
2019-05-28T11:14:57.462Z,99471.98
2019-05-28T11:17:29.289Z,99469.79
2019-05-28T11:20:01.308Z,99471.16
2019-05-28T11:22:32.817Z,99468.75
2019-05-28T11:25:04.771Z,99470.86
2019-05-28T11:27:35.480Z,99470.62
2019-05-28T11:30:08.062Z,99475.25
2019-05-28T11:32:39.767Z,99472.75
2019-05-28T11:35:12.229Z,99466.34
2019-05-28T11:37:43.839Z,99470.52
2019-05-28T11:40:16.783Z,99460.37
2019-05-28T11:42:48.364Z,99459.75
2019-05-28T11:45:20.049Z,99464.23
2019-05-28T11:47:51.742Z,99468.42
2019-05-28T11:50:23.479Z,99465.78
2019-05-28T11:52:55.297Z,99453.85
2019-05-28T11:55:26.880Z,99453.85
2019-05-28T11:57:58.620Z,99465.05
2019-05-28T12:00:29.878Z,99466.06
2019-05-28T12:03:01.447Z,99469.44
2019-05-28T12:05:33.066Z,99462.02
2019-05-28T12:08:04.787Z,99462.31
2019-05-28T12:10:36.426Z,99470.30
2019-05-28T12:13:10.747Z,99469.14
2019-05-28T12:15:41.573Z,99467.24
2019-05-28T12:18:13.780Z,99467.22
2019-05-28T12:20:45.403Z,99467.22
2019-05-28T12:23:17.307Z,99464.48
2019-05-28T12:25:48.859Z,99469.42
2019-05-28T12:28:36.450Z,99469.33
2019-05-28T12:30:54.294Z,99473.13
2019-05-28T12:33:26.293Z,99473.52
2019-05-28T12:35:57.854Z,99469.18
2019-05-28T12:38:29.724Z,99465.09
2019-05-28T12:41:00.422Z,99473.61
2019-05-28T12:43:32.045Z,99479.51
2019-05-28T12:46:03.736Z,99473.42
2019-05-28T12:48:34.458Z,99477.81
2019-05-28T12:51:06.304Z,99479.27
2019-05-28T12:53:49.483Z,99477.38
2019-05-28T12:56:11.309Z,99481.70
2019-05-28T12:58:43.651Z,99480.02
2019-05-28T13:01:15.749Z,99474.70
2019-05-28T13:03:51.070Z,99485.61
2019-05-28T13:06:21.394Z,99482.98
2019-05-28T13:08:53.059Z,99486.33
2019-05-28T13:11:24.693Z,99483.60
2019-05-28T13:13:55.485Z,99482.44
2019-05-28T13:16:27.388Z,99488.73
2019-05-28T13:18:59.025Z,99482.05
2019-05-28T13:21:30.703Z,99485.73
2019-05-28T13:24:01.495Z,99482.26
2019-05-28T13:26:33.354Z,99487.33
2019-05-28T13:29:05.301Z,99487.33
2019-05-28T13:31:37.306Z,99491.95
2019-05-28T13:34:08.803Z,99488.25
2019-05-28T13:36:40.422Z,99490.89
2019-05-28T13:39:12.056Z,99491.09
2019-05-28T13:41:43.767Z,99490.59
2019-05-28T13:44:14.480Z,99487.95
2019-05-28T13:46:46.300Z,99488.88
2019-05-28T13:49:18.022Z,99486.59
2019-05-28T13:51:52.706Z,99487.19
2019-05-28T13:54:23.302Z,99493.27
2019-05-28T13:56:54.777Z,99496.09
2019-05-28T13:59:26.566Z,99492.64
2019-05-28T14:01:58.751Z,99478.03
2019-05-28T14:04:29.729Z,99478.03
2019-05-28T14:07:01.409Z,99495.70
2019-05-28T14:09:33.333Z,99489.41
2019-05-28T14:12:05.761Z,99495.47
2019-05-28T14:14:37.659Z,99498.73
2019-05-28T14:17:09.154Z,99498.97
2019-05-28T14:19:40.699Z,99498.87
2019-05-28T14:22:12.295Z,99501.27
2019-05-28T14:24:44.203Z,99504.01
2019-05-28T14:27:15.849Z,99505.17
2019-05-28T14:29:47.378Z,99502.20
2019-05-28T14:32:19.049Z,99503.36
2019-05-28T14:34:52.549Z,99499.89
2019-05-28T14:37:24.379Z,99502.92
2019-05-28T14:39:56.331Z,99501.16
2019-05-28T14:42:28.381Z,99505.89
2019-05-28T14:45:00.070Z,99504.58
2019-05-28T14:47:31.745Z,99505.66
2019-05-28T14:50:02.467Z,99512.48
2019-05-28T14:52:34.299Z,99511.02
2019-05-28T14:55:06.854Z,99515.85
2019-05-28T14:57:38.784Z,99513.66
2019-05-28T15:00:12.775Z,99519.65
2019-05-28T15:02:44.466Z,99527.10
2019-05-28T15:05:16.312Z,99525.11
2019-05-28T15:07:47.827Z,99529.73
2019-05-28T15:10:19.570Z,99534.66
2019-05-28T15:12:51.378Z,99535.40
2019-05-28T15:15:35.160Z,99535.40
2019-05-28T15:17:56.771Z,99537.39
2019-05-28T15:20:28.422Z,99544.84
2019-05-28T15:23:00.382Z,99542.12
2019-05-28T15:25:32.579Z,99549.15
2019-05-28T15:28:04.467Z,99546.95
2019-05-28T15:30:36.436Z,99546.95
2019-05-28T15:33:08.268Z,99561.97
2019-05-28T15:35:39.888Z,99554.84
2019-05-28T15:38:11.735Z,99556.88
2019-05-28T15:40:42.769Z,99557.23
2019-05-28T15:43:14.340Z,99557.09
2019-05-28T15:45:46.072Z,99559.62
2019-05-28T15:48:18.313Z,99556.16
2019-05-28T15:50:49.905Z,99560.39
2019-05-28T15:53:21.849Z,99565.38
2019-05-28T15:55:53.731Z,99564.02
2019-05-28T15:58:24.620Z,99569.27
2019-05-28T16:00:56.604Z,99576.73
2019-05-28T16:03:28.651Z,99576.44
2019-05-28T16:06:00.403Z,99568.84
2019-05-28T16:08:32.474Z,99568.84
2019-05-28T16:11:04.619Z,99578.92
2019-05-28T16:13:36.330Z,99583.27
2019-05-28T16:16:08.305Z,99583.27
2019-05-28T16:18:40.744Z,99585.90
2019-05-28T16:21:11.675Z,99585.56
2019-05-28T16:23:42.462Z,99590.09
2019-05-28T16:26:14.389Z,99589.22
2019-05-28T16:28:46.075Z,99588.39
2019-05-28T16:31:18.270Z,99586.73
2019-05-28T16:33:51.309Z,99593.32
2019-05-28T16:37:53.370Z,99591.02
2019-05-28T16:40:25.354Z,99591.02
2019-05-28T16:42:57.307Z,99597.65
2019-05-28T16:45:28.993Z,99597.35
2019-05-28T16:48:00.778Z,99595.56
2019-05-28T16:50:31.474Z,99603.11
2019-05-28T16:53:03.434Z,99601.55
2019-05-28T16:55:35.116Z,99612.08
2019-05-28T16:58:06.887Z,99609.24
2019-05-28T17:00:38.843Z,99616.17
2019-05-28T17:03:10.779Z,99614.67
2019-05-28T17:05:41.489Z,99623.36
2019-05-28T17:08:13.305Z,99625.69
2019-05-28T17:10:45.346Z,99629.05
2019-05-28T17:13:17.062Z,99627.59
2019-05-28T17:15:48.755Z,99630.84
2019-05-28T17:18:19.739Z,99631.48
2019-05-28T17:20:51.506Z,99640.60
2019-05-28T17:23:23.252Z,99640.41
2019-05-28T17:25:54.892Z,99636.61
2019-05-28T17:28:26.759Z,99646.59
2019-05-28T17:30:57.456Z,99648.27
2019-05-28T17:33:29.303Z,99646.93
2019-05-28T17:36:01.355Z,99651.13
2019-05-28T17:38:33.310Z,99650.49
2019-05-28T17:41:05.292Z,99657.95
2019-05-28T17:43:36.818Z,99665.41
2019-05-28T17:46:08.635Z,99672.33
2019-05-28T17:48:40.357Z,99675.16
2019-05-28T17:51:12.058Z,99677.89
2019-05-28T17:53:43.742Z,99677.49
2019-05-28T17:56:14.450Z,99687.78
2019-05-28T17:58:46.436Z,99689.34
2019-05-28T18:01:18.565Z,99693.97
2019-05-28T18:03:50.346Z,99699.12
2019-05-28T18:06:22.045Z,99699.12
2019-05-28T18:08:53.794Z,99726.63
2019-05-28T18:11:25.410Z,99734.48
2019-05-28T18:13:57.063Z,99744.14
2019-05-28T18:16:28.773Z,99741.95
2019-05-28T18:19:00.723Z,99756.03
2019-05-28T18:21:32.899Z,99760.31
2019-05-28T18:24:04.712Z,99771.86
2019-05-28T18:26:35.463Z,99770.72
2019-05-28T18:29:07.349Z,99781.75
2019-05-28T18:31:39.318Z,99777.95
2019-05-28T18:34:10.887Z,99779.02
2019-05-28T18:36:42.423Z,99784.90
2019-05-28T18:39:14.066Z,99785.63
2019-05-28T18:41:45.907Z,99789.72
2019-05-28T18:44:17.727Z,99791.06
2019-05-28T18:46:49.923Z,99795.27
2019-05-28T18:49:21.738Z,99801.78
2019-05-28T18:51:52.487Z,99797.78
2019-05-28T18:54:24.312Z,99808.59
2019-05-28T18:56:56.065Z,99814.80
2019-05-28T18:59:27.871Z,99812.68
2019-05-28T19:01:59.820Z,99820.76
2019-05-28T19:04:31.427Z,99823.16
2019-05-28T19:07:03.313Z,99824.13
2019-05-28T19:09:36.310Z,99832.41
2019-05-28T19:12:08.306Z,99840.28
2019-05-28T19:14:39.863Z,99841.95
2019-05-28T19:17:11.753Z,99841.42
2019-05-28T19:19:42.487Z,99847.52
2019-05-28T19:22:14.309Z,99846.66
2019-05-28T19:24:45.878Z,99853.47
2019-05-28T19:27:17.424Z,99857.56
2019-05-28T19:29:50.618Z,99862.00
2019-05-28T19:32:22.638Z,99865.22
2019-05-28T19:34:55.363Z,99850.45
2019-05-28T19:37:27.306Z,99850.45
2019-05-28T19:39:59.312Z,99871.92
2019-05-28T19:42:30.967Z,99878.86
2019-05-28T19:45:02.700Z,99887.69
2019-05-28T19:47:33.490Z,99880.22
2019-05-28T19:50:05.693Z,99890.06
2019-05-28T19:52:36.502Z,99885.75
2019-05-28T19:55:08.499Z,99875.22
2019-05-28T19:57:40.390Z,99875.22
2019-05-28T20:00:12.313Z,99894.35
2019-05-28T20:02:44.791Z,99894.47
2019-05-28T20:05:16.374Z,99895.30
2019-05-28T20:07:48.266Z,99890.38
2019-05-28T20:10:20.314Z,99908.22
2019-05-28T20:12:52.070Z,99910.64
2019-05-28T20:15:25.774Z,99913.16
2019-05-28T20:17:58.316Z,99911.78
2019-05-28T20:20:29.867Z,99913.14
2019-05-28T20:23:01.610Z,99919.62
2019-05-28T20:25:33.352Z,99925.83
2019-05-28T20:28:04.890Z,99925.83
2019-05-28T20:30:36.385Z,99932.77
2019-05-28T20:33:09.329Z,99938.56
2019-05-28T20:35:41.324Z,99939.93
2019-05-28T20:38:12.857Z,99944.92
2019-05-28T20:40:44.785Z,99948.86
2019-05-28T20:43:15.455Z,99949.70
2019-05-28T20:45:47.061Z,99950.72
2019-05-28T20:48:19.277Z,99947.37
2019-05-28T20:50:50.790Z,99952.38
2019-05-28T20:53:35.235Z,99961.92
2019-05-28T20:55:56.322Z,99954.27
2019-05-28T20:58:39.867Z,99960.67
2019-05-28T21:01:01.490Z,99960.96
2019-05-28T21:03:33.762Z,99960.77
2019-05-28T21:06:04.485Z,99965.30
2019-05-28T21:08:36.317Z,99968.95
2019-05-28T21:11:07.852Z,99971.69
2019-05-28T21:13:39.588Z,99973.29
2019-05-28T21:16:11.304Z,99972.47
2019-05-28T21:18:42.900Z,99972.47
2019-05-28T21:21:14.786Z,99972.88
2019-05-28T21:23:45.520Z,99982.53
2019-05-28T21:26:17.276Z,99969.47
2019-05-28T21:28:50.090Z,99969.47
2019-05-28T21:31:22.316Z,99992.08
2019-05-28T21:33:54.950Z,99995.40
2019-05-28T21:36:26.754Z,100000.95
2019-05-28T21:38:57.679Z,100003.33
2019-05-28T21:41:28.446Z,100001.20
2019-05-28T21:44:00.174Z,100005.75
2019-05-28T21:46:32.258Z,100016.01
2019-05-28T21:49:03.859Z,100012.16
2019-05-28T21:51:35.411Z,100017.43
2019-05-28T21:54:07.057Z,100019.26
2019-05-28T21:56:38.702Z,100019.20
2019-05-28T21:59:09.517Z,100022.76
2019-05-28T22:01:41.343Z,100028.09
2019-05-28T22:04:13.301Z,100034.09
2019-05-28T22:06:44.820Z,100040.80
2019-05-28T22:09:16.798Z,100041.25
2019-05-28T22:11:48.473Z,100047.55
2019-05-28T22:14:20.053Z,100046.06
2019-05-28T22:16:51.762Z,100048.66
2019-05-28T22:19:23.774Z,100050.73
2019-05-28T22:21:54.528Z,100054.17
2019-05-28T22:24:26.312Z,100054.83
2019-05-28T22:26:58.483Z,100059.57
2019-05-28T22:29:30.399Z,100050.23
2019-05-28T22:32:02.854Z,100050.23
2019-05-28T22:34:34.778Z,100057.16
2019-05-28T22:37:05.472Z,100066.39
2019-05-28T22:39:37.307Z,100064.77
2019-05-28T22:42:08.850Z,100072.11
2019-05-28T22:44:40.807Z,100067.80
2019-05-28T22:47:12.570Z,100076.39
2019-05-28T22:49:44.267Z,100084.75
2019-05-28T22:52:16.371Z,100084.75
2019-05-28T22:54:48.343Z,100093.45
2019-05-28T22:57:20.057Z,100096.83
2019-05-28T22:59:51.765Z,100095.88
2019-05-28T23:02:22.605Z,100095.53
2019-05-28T23:04:54.536Z,100107.09
2019-05-28T23:07:26.322Z,100107.09
2019-05-28T23:09:59.401Z,100105.28
2019-05-28T23:12:31.366Z,100117.02
2019-05-28T23:15:03.954Z,100117.02
2019-05-28T23:17:35.775Z,100113.77
2019-05-28T23:20:08.787Z,100122.08
2019-05-28T23:22:40.774Z,100121.42
2019-05-28T23:25:11.823Z,100123.39
2019-05-28T23:27:43.750Z,100129.02
2019-05-28T23:30:36.264Z,100133.56
2019-05-28T23:33:10.455Z,100133.56
2019-05-28T23:35:41.533Z,100137.78
2019-05-28T23:38:13.297Z,100135.66
2019-05-28T23:40:44.991Z,100142.52
2019-05-28T23:43:16.751Z,100151.05
2019-05-28T23:45:47.466Z,100159.72
2019-05-28T23:48:19.306Z,100164.86
2019-05-28T23:50:50.907Z,100164.47
2019-05-28T23:53:22.385Z,100166.41
2019-05-28T23:55:54.013Z,100173.30
2019-05-28T23:58:25.778Z,100175.64
